Time;durP1;ratioP1;P1;durP2;ratioP2;P2;SDS_P1;SDS_P2;PMS_P1;PMS_P2;Temp;Humidity;BMP_temperature;BMP_pressure;BME280_temperature;BME280_humidity;BME280_pressure;Samples;Min_cycle;Max_cycle;Signal;HPM_P1;HPM_P2
2020/12/23 00:02:05;;;;;;;16.63;10.60;;;9.20;99.90;;;;;;4979322;28;20204;-78
2020/12/23 00:04:31;;;;;;;15.03;10.47;;;9.20;99.90;;;;;;4979022;28;20181;-79
2020/12/23 00:06:56;;;;;;;14.73;10.17;;;9.30;99.90;;;;;;4978873;28;20302;-78
2020/12/23 00:09:23;;;;;;;18.90;10.40;;;9.20;99.90;;;;;;4995143;28;20205;-79
2020/12/23 00:11:54;;;;;;;16.00;10.57;;;9.20;99.90;;;;;;4978703;28;20692;-78
2020/12/23 00:14:21;;;;;;;14.37;10.67;;;9.20;99.90;;;;;;4978883;28;20244;-79
2020/12/23 00:16:46;;;;;;;16.63;10.20;;;9.20;99.90;;;;;;4978525;28;20701;-78
2020/12/23 00:19:12;;;;;;;15.23;9.93;;;9.20;99.90;;;;;;4994808;28;20182;-78
2020/12/23 00:21:37;;;;;;;17.60;10.83;;;9.20;99.90;;;;;;4978485;28;20186;-79
2020/12/23 00:24:03;;;;;;;16.87;11.53;;;9.30;99.90;;;;;;4978587;28;20177;-79
2020/12/23 00:26:28;;;;;;;17.00;10.70;;;9.30;99.90;;;;;;4978650;28;20579;-78
2020/12/23 00:28:54;;;;;;;16.67;11.10;;;9.20;99.90;;;;;;4994946;28;20332;-79
2020/12/23 00:31:20;;;;;;;21.53;13.10;;;9.20;99.90;;;;;;4978577;28;20280;-78
2020/12/23 00:33:45;;;;;;;20.97;11.60;;;9.10;99.90;;;;;;4978521;28;20221;-79
2020/12/23 00:36:15;;;;;;;19.87;13.43;;;9.10;99.90;;;;;;4978483;28;20184;-79
2020/12/23 00:38:41;;;;;;;21.77;12.83;;;9.20;99.90;;;;;;4979021;28;20203;-78
2020/12/23 00:41:08;;;;;;;21.77;13.53;;;9.20;99.90;;;;;;4978623;28;20183;-79
2020/12/23 00:43:33;;;;;;;25.00;13.63;;;9.20;99.90;;;;;;4994938;28;20200;-78
2020/12/23 00:45:59;;;;;;;21.77;13.80;;;9.20;99.90;;;;;;5010778;28;20213;-77
2020/12/23 00:48:24;;;;;;;24.63;12.87;;;9.20;99.90;;;;;;4994667;28;20182;-78
2020/12/23 00:50:50;;;;;;;19.63;13.57;;;9.20;99.90;;;;;;4978656;28;20180;-80
2020/12/23 00:53:15;;;;;;;20.07;13.20;;;9.20;99.90;;;;;;4994934;28;20192;-78
2020/12/23 00:55:41;;;;;;;18.73;13.20;;;9.20;99.90;;;;;;4978901;28;20225;-78
2020/12/23 00:58:06;;;;;;;20.23;13.43;;;9.20;99.90;;;;;;4994786;28;20184;-78
2020/12/23 01:00:32;;;;;;;19.27;12.83;;;9.20;99.90;;;;;;4978461;28;20686;-79
2020/12/23 01:02:58;;;;;;;25.97;15.57;;;9.20;99.90;;;;;;4978866;28;20207;-77
2020/12/23 01:05:23;;;;;;;28.47;16.90;;;9.30;99.90;;;;;;4978587;28;20228;-77
2020/12/23 01:07:49;;;;;;;24.07;17.67;;;9.30;99.90;;;;;;4978535;28;20234;-78
2020/12/23 01:10:14;;;;;;;25.07;16.40;;;9.30;99.90;;;;;;4981502;28;20175;-79
2020/12/23 01:12:40;;;;;;;28.23;16.93;;;9.30;99.90;;;;;;4981522;28;20250;-77
2020/12/23 01:15:05;;;;;;;24.90;17.23;;;9.30;99.90;;;;;;4981480;28;20187;-79
2020/12/23 01:17:31;;;;;;;29.73;16.63;;;9.30;99.90;;;;;;4997557;28;20214;-79
2020/12/23 01:19:56;;;;;;;23.40;14.47;;;9.30;99.90;;;;;;4981340;28;20229;-78
2020/12/23 01:22:24;;;;;;;25.17;16.07;;;9.30;99.90;;;;;;4981200;28;20211;-78
2020/12/23 01:24:50;;;;;;;28.93;15.17;;;9.30;99.90;;;;;;4997670;28;20647;-79
2020/12/23 01:27:15;;;;;;;30.73;16.20;;;9.20;99.90;;;;;;4997578;28;20210;-78
2020/12/23 01:29:41;;;;;;;26.93;15.53;;;9.30;99.90;;;;;;4981309;28;20176;-78
2020/12/23 01:32:07;;;;;;;27.70;15.90;;;9.30;99.90;;;;;;4981042;28;20259;-79
2020/12/23 01:34:32;;;;;;;26.20;15.13;;;9.30;99.90;;;;;;4981312;28;20254;-79
2020/12/23 01:36:58;;;;;;;26.37;14.27;;;9.30;99.90;;;;;;4997010;28;20190;-79
2020/12/23 01:39:23;;;;;;;22.67;13.83;;;9.30;99.90;;;;;;4997332;28;20183;-79
2020/12/23 01:41:55;;;;;;;21.00;13.27;;;9.30;99.90;;;;;;4980976;28;20295;-78
2020/12/23 01:44:21;;;;;;;19.33;13.30;;;9.40;99.90;;;;;;4981152;28;20171;-79
2020/12/23 01:46:46;;;;;;;22.43;13.00;;;9.40;99.90;;;;;;4980678;28;20198;-79
2020/12/23 01:49:12;;;;;;;20.07;13.10;;;9.50;99.90;;;;;;4980954;28;20255;-78
2020/12/23 01:51:37;;;;;;;21.10;13.40;;;9.60;99.90;;;;;;4991257;23;20224;-75
2020/12/23 01:54:03;;;;;;;22.03;13.13;;;9.60;99.90;;;;;;4993732;28;20271;-76
2020/12/23 01:56:29;;;;;;;21.30;13.23;;;9.60;99.90;;;;;;4993499;28;20255;-76
2020/12/23 01:58:55;;;;;;;25.37;13.43;;;9.50;99.90;;;;;;4977486;28;20224;-76
2020/12/23 02:01:22;;;;;;;19.40;13.17;;;9.50;99.90;;;;;;4993455;28;20246;-76
2020/12/23 02:03:48;;;;;;;20.83;14.07;;;9.60;99.90;;;;;;5009860;28;20267;-76
2020/12/23 02:06:13;;;;;;;23.07;14.53;;;9.60;99.90;;;;;;5009545;28;20235;-76
2020/12/23 02:08:42;;;;;;;25.90;14.80;;;9.50;99.90;;;;;;4994622;28;20202;-76
2020/12/23 02:11:12;;;;;;;22.80;14.63;;;9.70;99.90;;;;;;5009633;28;20283;-76
2020/12/23 02:13:41;;;;;;;21.57;14.73;;;9.70;99.90;;;;;;5009560;28;20190;-75
2020/12/23 02:16:07;;;;;;;24.57;15.87;;;9.60;99.90;;;;;;5009048;28;20254;-76
2020/12/23 02:18:33;;;;;;;24.73;14.27;;;9.60;99.90;;;;;;5009500;28;20260;-76
2020/12/23 02:20:59;;;;;;;21.93;14.57;;;9.50;99.90;;;;;;5009359;28;20617;-76
2020/12/23 02:23:24;;;;;;;21.83;14.93;;;9.70;99.90;;;;;;4994323;28;20218;-76
2020/12/23 02:25:50;;;;;;;22.67;14.63;;;9.70;99.90;;;;;;5009409;28;20290;-76
2020/12/23 02:28:15;;;;;;;23.73;14.70;;;9.60;99.90;;;;;;5009133;28;20202;-76
2020/12/23 02:30:41;;;;;;;20.43;14.30;;;9.80;99.90;;;;;;5009258;28;20199;-75
2020/12/23 02:33:06;;;;;;;25.00;15.07;;;9.70;99.90;;;;;;5009331;28;20551;-76
2020/12/23 02:35:32;;;;;;;20.03;14.57;;;9.50;99.90;;;;;;5009299;28;20177;-76
2020/12/23 02:37:57;;;;;;;21.83;14.30;;;9.60;99.90;;;;;;4994027;28;20176;-76
2020/12/23 02:40:23;;;;;;;23.03;14.07;;;9.60;99.90;;;;;;4992876;28;20183;-75
2020/12/23 02:42:48;;;;;;;22.47;14.77;;;9.50;99.90;;;;;;5009271;28;20223;-76
2020/12/23 02:45:14;;;;;;;21.03;14.40;;;9.50;99.90;;;;;;5009101;28;20196;-76
2020/12/23 02:47:40;;;;;;;21.43;14.27;;;9.40;99.90;;;;;;5008846;28;20251;-76
2020/12/23 02:50:05;;;;;;;20.97;14.33;;;9.50;99.90;;;;;;4992602;28;20226;-75
2020/12/23 02:52:31;;;;;;;23.20;15.80;;;9.60;99.90;;;;;;4992566;28;20206;-76
2020/12/23 02:54:56;;;;;;;25.30;15.60;;;9.50;99.90;;;;;;4992550;28;20183;-76
2020/12/23 02:57:22;;;;;;;27.10;16.37;;;9.60;99.90;;;;;;4993559;28;20175;-76
2020/12/23 02:59:47;;;;;;;29.07;16.97;;;9.60;99.90;;;;;;5008833;28;20214;-76
2020/12/23 03:02:13;;;;;;;27.47;16.70;;;9.60;99.90;;;;;;4993578;28;20196;-77
2020/12/23 03:04:38;;;;;;;26.57;16.93;;;9.60;99.90;;;;;;5009221;28;20178;-75
2020/12/23 03:07:04;;;;;;;29.67;16.80;;;9.50;99.90;;;;;;4991962;28;20217;-75
2020/12/23 03:09:29;;;;;;;27.07;17.27;;;9.50;99.90;;;;;;4992308;28;20179;-76
2020/12/23 03:11:55;;;;;;;30.90;17.37;;;9.50;99.90;;;;;;4993593;28;20658;-76
2020/12/23 03:14:20;;;;;;;24.20;15.80;;;9.50;99.90;;;;;;4992196;28;20682;-75
2020/12/23 03:16:46;;;;;;;25.10;15.93;;;9.50;99.90;;;;;;4992036;28;20577;-75
2020/12/23 03:19:11;;;;;;;22.60;14.97;;;9.50;99.90;;;;;;4993354;28;20203;-76
2020/12/23 03:21:37;;;;;;;22.07;15.23;;;9.50;99.90;;;;;;4992000;28;20208;-76
2020/12/23 03:24:03;;;;;;;21.63;14.27;;;9.60;99.90;;;;;;5008229;28;20212;-76
2020/12/23 03:26:28;;;;;;;21.97;14.53;;;9.70;99.90;;;;;;5008376;28;20199;-76
2020/12/23 03:28:54;;;;;;;20.07;14.10;;;9.70;99.90;;;;;;4991916;28;20184;-75
2020/12/23 03:31:19;;;;;;;20.30;13.50;;;9.60;99.90;;;;;;5007700;28;20572;-75
2020/12/23 03:33:45;;;;;;;19.07;13.10;;;9.60;99.90;;;;;;4991871;28;20258;-76
2020/12/23 03:36:10;;;;;;;18.37;13.17;;;9.60;99.90;;;;;;4991911;28;20186;-76
2020/12/23 03:38:36;;;;;;;21.90;14.10;;;9.60;99.90;;;;;;5008165;28;20266;-76
2020/12/23 03:41:02;;;;;;;24.80;14.77;;;9.70;99.90;;;;;;4991442;28;20199;-76
2020/12/23 03:43:27;;;;;;;22.77;15.63;;;9.60;99.90;;;;;;5007416;28;20226;-76
2020/12/23 03:45:53;;;;;;;26.33;16.27;;;9.60;99.90;;;;;;5008092;28;20196;-76
2020/12/23 03:48:18;;;;;;;24.97;16.13;;;9.50;99.90;;;;;;5008046;28;20178;-75
2020/12/23 03:50:45;;;;;;;24.50;15.87;;;9.60;99.90;;;;;;4992728;28;20204;-76
2020/12/23 03:53:10;;;;;;;25.97;16.53;;;9.60;99.90;;;;;;5008017;28;20158;-76
2020/12/23 03:55:36;;;;;;;26.90;15.73;;;9.60;99.90;;;;;;4991743;28;20279;-76
2020/12/23 03:58:02;;;;;;;28.00;16.37;;;9.60;99.90;;;;;;4991256;28;20299;-76
2020/12/23 04:00:27;;;;;;;23.37;15.17;;;9.50;99.90;;;;;;5007857;28;20203;-76
2020/12/23 04:02:53;;;;;;;25.30;16.57;;;9.40;99.90;;;;;;4991962;28;20687;-76
2020/12/23 04:05:18;;;;;;;25.30;16.10;;;9.50;99.90;;;;;;5007954;28;20226;-76
2020/12/23 04:07:44;;;;;;;24.97;16.00;;;9.60;99.90;;;;;;4992564;28;20209;-76
2020/12/23 04:10:10;;;;;;;28.77;16.77;;;9.60;99.90;;;;;;4991340;28;20183;-76
2020/12/23 04:12:38;;;;;;;25.57;16.80;;;9.60;99.90;;;;;;5007774;28;20258;-75
2020/12/23 04:15:05;;;;;;;26.70;16.63;;;9.60;99.90;;;;;;4991551;28;20275;-76
2020/12/23 04:17:30;;;;;;;26.47;16.27;;;9.60;99.90;;;;;;4991229;28;20259;-76
2020/12/23 04:19:56;;;;;;;26.67;15.70;;;9.60;99.90;;;;;;4991523;28;20652;-76
2020/12/23 04:22:22;;;;;;;27.97;16.70;;;9.50;99.90;;;;;;4991373;28;20559;-76
2020/12/23 04:24:47;;;;;;;28.03;17.27;;;9.50;99.90;;;;;;4992503;28;20551;-76
2020/12/23 04:27:13;;;;;;;32.33;18.87;;;9.50;99.90;;;;;;4991189;28;20205;-76
2020/12/23 04:29:38;;;;;;;30.47;16.33;;;9.60;99.90;;;;;;5007697;28;20197;-75
2020/12/23 04:32:04;;;;;;;30.17;16.60;;;9.70;99.90;;;;;;5007741;28;20200;-75
2020/12/23 04:34:29;;;;;;;33.20;17.03;;;9.60;99.90;;;;;;5007797;28;20184;-76
2020/12/23 04:36:55;;;;;;;38.00;17.80;;;9.60;99.90;;;;;;4991132;28;20187;-76
2020/12/23 04:39:20;;;;;;;41.07;19.30;;;9.60;99.90;;;;;;5007679;28;20187;-76
2020/12/23 04:41:46;;;;;;;36.87;19.37;;;9.60;99.90;;;;;;5007538;28;20216;-75
2020/12/23 04:44:11;;;;;;;41.50;19.03;;;9.60;99.90;;;;;;4992612;28;20184;-76
2020/12/23 04:46:41;;;;;;;44.30;19.67;;;9.70;99.90;;;;;;4994682;28;20211;-76
2020/12/23 04:49:07;;;;;;;33.77;18.17;;;9.60;99.90;;;;;;5011035;28;20578;-75
2020/12/23 04:51:36;;;;;;;44.03;18.97;;;9.60;99.90;;;;;;5010884;28;20221;-77
2020/12/23 04:54:04;;;;;;;49.00;19.73;;;9.60;99.90;;;;;;4994755;28;20187;-76
2020/12/23 04:56:30;;;;;;;53.60;20.83;;;9.60;99.90;;;;;;5010714;28;20187;-76
2020/12/23 04:58:56;;;;;;;50.70;20.97;;;9.60;99.90;;;;;;5011148;28;20187;-76
2020/12/23 05:01:22;;;;;;;50.83;20.30;;;9.70;99.90;;;;;;5010988;28;20199;-76
2020/12/23 05:03:48;;;;;;;58.07;22.43;;;9.70;99.90;;;;;;4994650;28;20183;-76
2020/12/23 05:06:14;;;;;;;63.30;21.57;;;9.70;99.90;;;;;;5010759;28;20203;-76
2020/12/23 05:08:39;;;;;;;68.43;21.97;;;9.70;99.90;;;;;;5010913;28;20804;-76
2020/12/23 05:11:06;;;;;;;75.30;23.37;;;9.60;99.90;;;;;;4994336;28;20697;-76
2020/12/23 05:13:32;;;;;;;73.67;22.70;;;9.60;99.90;;;;;;4994362;28;20262;-76
2020/12/23 05:15:57;;;;;;;87.13;23.03;;;9.60;99.90;;;;;;5010774;28;20216;-76
2020/12/23 05:18:33;;;;;;;78.80;23.73;;;9.80;99.90;;;;;;4995482;28;20191;-76
2020/12/23 05:20:59;;;;;;;86.40;24.47;;;9.70;99.90;;;;;;5010127;28;20261;-75
2020/12/23 05:23:25;;;;;;;74.83;22.77;;;9.70;99.90;;;;;;5010629;28;20176;-76
2020/12/23 05:25:50;;;;;;;70.40;23.43;;;9.70;99.90;;;;;;4995288;28;20771;-76
2020/12/23 05:28:16;;;;;;;77.17;24.43;;;9.70;99.90;;;;;;5010361;28;20238;-76
2020/12/23 05:30:45;;;;;;;82.23;24.80;;;9.70;99.90;;;;;;5010432;28;20202;-76
2020/12/23 05:33:11;;;;;;;85.83;25.73;;;9.70;99.90;;;;;;5010571;28;20165;-75
2020/12/23 05:35:37;;;;;;;75.53;24.23;;;9.70;99.90;;;;;;5010417;28;20269;-75
2020/12/23 05:38:03;;;;;;;91.73;26.60;;;9.70;99.90;;;;;;5010163;28;20183;-76
2020/12/23 05:40:30;;;;;;;69.63;25.37;;;9.70;99.90;;;;;;4993798;28;20191;-76
2020/12/23 05:42:56;;;;;;;71.27;24.00;;;9.80;99.90;;;;;;5010228;28;20176;-76
2020/12/23 05:45:22;;;;;;;72.60;24.77;;;9.80;99.90;;;;;;5010219;28;20236;-76
2020/12/23 05:47:52;;;;;;;68.40;24.17;;;9.70;99.90;;;;;;5009237;28;20192;-76
2020/12/23 05:50:17;;;;;;;69.17;25.53;;;9.70;99.90;;;;;;5009691;28;20223;-76
2020/12/23 05:52:44;;;;;;;75.07;26.20;;;9.70;99.90;;;;;;5010161;28;20176;-75
2020/12/23 05:55:16;;;;;;;74.27;26.10;;;9.70;99.90;;;;;;4992425;28;20188;-75
2020/12/23 05:57:43;;;;;;;71.63;26.03;;;9.70;99.90;;;;;;4975250;28;20242;-77
2020/12/23 06:00:09;;;;;;;63.60;24.73;;;9.70;99.90;;;;;;4993788;28;20184;-75
2020/12/23 06:02:49;;;;;;;67.60;25.50;;;9.70;99.90;;;;;;4993620;28;20204;-75
2020/12/23 06:05:15;;;;;;;61.90;26.67;;;9.70;99.90;;;;;;4993487;28;20215;-75
2020/12/23 06:07:40;;;;;;;64.43;25.30;;;9.80;99.90;;;;;;4977157;28;20326;-77
2020/12/23 06:10:06;;;;;;;64.73;25.17;;;9.80;99.90;;;;;;4985637;28;20184;-81
2020/12/23 06:12:31;;;;;;;58.30;26.30;;;9.80;99.90;;;;;;5010411;28;20203;-81
2020/12/23 06:14:58;;;;;;;60.47;26.53;;;9.80;99.90;;;;;;4981470;28;20183;-80
2020/12/23 06:17:24;;;;;;;61.33;25.77;;;9.80;99.90;;;;;;4979548;28;20657;-80
2020/12/23 06:19:57;;;;;;;60.70;26.67;;;9.70;99.90;;;;;;4998208;28;20193;-82
2020/12/23 06:22:24;;;;;;;56.70;25.93;;;9.80;99.90;;;;;;4980758;28;20203;-80
2020/12/23 06:24:49;;;;;;;57.30;26.43;;;9.80;99.90;;;;;;4977570;28;20744;-83
2020/12/23 06:27:15;;;;;;;61.77;25.83;;;9.80;99.90;;;;;;4976673;28;20188;-76
2020/12/23 06:29:42;;;;;;;65.10;27.20;;;9.80;99.90;;;;;;4976925;28;20187;-77
2020/12/23 06:32:20;;;;;;;61.90;27.33;;;9.80;99.90;;;;;;4992645;28;20211;-84
2020/12/23 06:34:56;;;;;;;59.97;25.90;;;9.70;99.90;;;;;;4991655;28;20242;-84
2020/12/23 06:37:23;;;;;;;56.57;25.50;;;9.80;99.90;;;;;;4991424;28;20212;-76
2020/12/23 06:39:49;;;;;;;64.07;27.23;;;9.80;99.90;;;;;;5008084;28;20274;-76
2020/12/23 06:42:14;;;;;;;58.97;26.87;;;9.90;99.90;;;;;;4992309;28;20297;-76
2020/12/23 06:44:43;;;;;;;59.83;27.23;;;10.00;99.90;;;;;;4994305;28;20183;-76
2020/12/23 06:47:09;;;;;;;58.50;26.70;;;9.90;99.90;;;;;;4993750;28;20208;-76
2020/12/23 06:49:51;;;;;;;58.23;26.87;;;9.90;99.90;;;;;;4993794;28;20579;-76
2020/12/23 06:52:22;;;;;;;53.30;26.63;;;10.00;99.90;;;;;;5008806;28;20655;-76
2020/12/23 06:55:00;;;;;;;56.60;28.37;;;10.10;99.90;;;;;;4993799;28;20171;-77
2020/12/23 06:57:38;;;;;;;62.67;28.43;;;10.00;99.90;;;;;;4993644;28;20163;-76
2020/12/23 07:00:19;;;;;;;58.13;27.47;;;10.10;99.90;;;;;;4993635;28;20183;-76
2020/12/23 07:02:49;;;;;;;60.07;27.67;;;10.10;99.90;;;;;;4992419;28;20172;-76
2020/12/23 07:05:32;;;;;;;61.43;28.23;;;10.10;99.90;;;;;;5008344;28;20202;-78
2020/12/23 07:07:59;;;;;;;64.77;27.37;;;10.20;99.90;;;;;;4991125;28;20234;-78
2020/12/23 07:10:26;;;;;;;56.30;27.27;;;10.20;99.90;;;;;;4992287;28;20186;-79
2020/12/23 07:12:55;;;;;;;57.47;26.70;;;10.10;99.90;;;;;;5008645;28;20174;-78
2020/12/23 07:15:22;;;;;;;58.30;26.87;;;10.20;99.90;;;;;;5008876;28;20234;-77
2020/12/23 07:17:50;;;;;;;53.30;26.77;;;10.20;99.90;;;;;;5008433;28;20217;-73
2020/12/23 07:20:15;;;;;;;57.33;26.97;;;10.20;99.90;;;;;;4980042;28;20180;-77
2020/12/23 07:22:52;;;;;;;54.57;25.93;;;10.20;99.90;;;;;;4971178;28;20546;-75
2020/12/23 07:25:25;;;;;;;50.60;26.13;;;10.10;99.90;;;;;;4971915;28;20223;-74
2020/12/23 07:27:57;;;;;;;52.87;25.90;;;10.20;99.90;;;;;;4972437;28;20218;-75
2020/12/23 07:30:23;;;;;;;55.93;25.70;;;10.20;99.90;;;;;;4972581;28;20561;-75
2020/12/23 07:33:05;;;;;;;53.40;26.83;;;10.20;99.90;;;;;;4973043;28;20176;-76
2020/12/23 07:35:30;;;;;;;53.30;26.20;;;10.20;99.90;;;;;;4972713;28;20184;-75
2020/12/23 07:38:00;;;;;;;56.17;27.77;;;10.20;99.90;;;;;;4974563;28;20191;-76
2020/12/23 07:40:26;;;;;;;56.67;27.63;;;10.20;99.90;;;;;;4982262;28;20184;-78
2020/12/23 07:42:52;;;;;;;55.87;27.00;;;10.40;99.90;;;;;;4975978;28;20180;-79
2020/12/23 07:45:18;;;;;;;60.83;28.43;;;10.30;99.90;;;;;;4973126;28;20208;-77
2020/12/23 07:47:58;;;;;;;57.60;27.00;;;10.30;99.90;;;;;;4974006;28;20614;-79
2020/12/23 07:50:25;;;;;;;57.73;27.23;;;10.30;99.90;;;;;;4972795;28;20184;-78
2020/12/23 07:52:50;;;;;;;55.83;26.33;;;10.30;99.90;;;;;;4958101;28;20257;-79
2020/12/23 07:55:22;;;;;;;48.90;25.00;;;10.30;99.90;;;;;;4973304;28;20195;-78
2020/12/23 07:57:49;;;;;;;48.17;24.57;;;10.40;99.90;;;;;;4974423;28;20223;-80
2020/12/23 08:00:15;;;;;;;51.43;26.17;;;10.40;99.90;;;;;;4972991;28;20220;-78
2020/12/23 08:02:41;;;;;;;47.07;24.97;;;10.40;99.90;;;;;;4972724;28;20193;-74
2020/12/23 08:05:08;;;;;;;51.40;24.70;;;10.50;99.90;;;;;;4974953;28;20180;-77
2020/12/23 08:07:52;;;;;;;45.13;24.07;;;10.50;99.90;;;;;;4975133;28;20180;-77
2020/12/23 08:10:19;;;;;;;42.97;24.80;;;10.50;99.90;;;;;;4991392;28;20640;-77
2020/12/23 08:12:55;;;;;;;43.40;23.37;;;10.50;99.90;;;;;;4975709;28;20201;-77
2020/12/23 08:15:20;;;;;;;44.23;22.77;;;10.50;99.90;;;;;;4972367;28;20559;-78
2020/12/23 08:17:46;;;;;;;45.43;23.63;;;10.60;99.90;;;;;;4956999;28;20690;-77
2020/12/23 08:20:15;;;;;;;42.13;22.47;;;10.60;99.90;;;;;;4959753;28;20188;-77
2020/12/23 08:22:44;;;;;;;43.87;23.57;;;10.60;99.90;;;;;;4959692;28;20181;-78
2020/12/23 08:25:15;;;;;;;42.03;22.27;;;10.60;99.90;;;;;;4992012;28;20205;-77
2020/12/23 08:27:42;;;;;;;43.60;23.93;;;10.70;99.90;;;;;;4991923;28;20169;-77
2020/12/23 08:30:10;;;;;;;48.00;23.13;;;10.70;99.90;;;;;;4993023;28;20175;-79
2020/12/23 08:32:40;;;;;;;41.17;22.70;;;10.70;99.90;;;;;;4978485;28;20204;-76
2020/12/23 08:35:05;;;;;;;48.17;25.20;;;10.80;99.90;;;;;;4991935;28;20526;-74
2020/12/23 08:37:33;;;;;;;45.23;23.27;;;10.90;99.90;;;;;;4992041;28;20177;-76
2020/12/23 08:39:59;;;;;;;44.57;23.70;;;10.80;99.90;;;;;;4975491;28;20203;-77
2020/12/23 08:42:25;;;;;;;41.40;22.20;;;10.90;99.90;;;;;;4975591;28;20835;-76
2020/12/23 08:44:52;;;;;;;40.17;22.37;;;10.90;99.90;;;;;;4992135;28;20192;-75
2020/12/23 08:47:26;;;;;;;39.43;21.60;;;10.90;99.90;;;;;;4991545;28;20643;-74
2020/12/23 08:49:53;;;;;;;42.73;20.77;;;11.00;99.90;;;;;;4975294;28;20184;-74
2020/12/23 08:52:19;;;;;;;39.63;21.30;;;11.00;99.90;;;;;;4975216;28;20271;-76
2020/12/23 08:54:45;;;;;;;44.60;21.50;;;11.10;99.90;;;;;;4991478;28;20176;-77
2020/12/23 08:57:21;;;;;;;33.20;20.23;;;11.00;99.90;;;;;;4991796;28;20667;-75
2020/12/23 08:59:47;;;;;;;35.53;20.67;;;11.10;99.90;;;;;;4991375;28;20633;-75
2020/12/23 09:02:13;;;;;;;33.27;18.97;;;11.10;99.90;;;;;;4975077;28;20290;-76
2020/12/23 09:04:39;;;;;;;36.20;21.00;;;11.10;99.90;;;;;;4991478;28;20607;-78
2020/12/23 09:07:04;;;;;;;35.63;19.47;;;11.10;99.90;;;;;;4991057;28;20204;-77
2020/12/23 09:09:30;;;;;;;29.97;17.27;;;11.10;99.90;;;;;;4991080;28;20180;-76
2020/12/23 09:11:57;;;;;;;33.23;17.37;;;11.20;99.90;;;;;;4975153;28;20205;-77
2020/12/23 09:14:23;;;;;;;29.37;16.80;;;11.10;99.90;;;;;;4978612;28;20180;-76
2020/12/23 09:16:56;;;;;;;26.60;16.37;;;11.20;99.90;;;;;;5001203;28;20596;-77
2020/12/23 09:20:00;;;;;;;28.43;16.43;;;11.20;99.90;;;;;;4996849;28;20181;-77
2020/12/23 09:22:29;;;;;;;23.03;14.23;;;11.20;99.90;;;;;;4981737;28;20303;-76
2020/12/23 09:25:18;;;;;;;22.27;14.67;;;11.20;99.90;;;;;;4978299;28;20263;-76
2020/12/23 09:27:44;;;;;;;20.23;13.63;;;11.20;99.90;;;;;;4994099;28;20184;-76
2020/12/23 09:30:10;;;;;;;21.27;14.10;;;11.20;99.90;;;;;;4977481;28;20180;-75
2020/12/23 09:32:35;;;;;;;19.97;13.40;;;11.30;99.90;;;;;;4991585;28;20558;-75
2020/12/23 09:35:16;;;;;;;22.27;13.07;;;11.30;99.90;;;;;;4993195;28;20214;-75
2020/12/23 09:37:43;;;;;;;21.00;13.40;;;11.30;99.90;;;;;;5008156;28;20580;-75
2020/12/23 09:40:10;;;;;;;19.70;12.53;;;11.30;99.90;;;;;;4993264;28;20176;-74
2020/12/23 09:42:35;;;;;;;17.50;11.53;;;11.30;99.90;;;;;;5003181;28;20256;-75
2020/12/23 09:45:01;;;;;;;18.73;12.07;;;11.30;99.90;;;;;;5006041;28;20184;-75
2020/12/23 09:47:26;;;;;;;17.47;11.37;;;11.30;99.90;;;;;;5009246;28;20176;-75
2020/12/23 09:49:52;;;;;;;15.70;11.63;;;11.40;99.90;;;;;;4976603;28;20215;-75
2020/12/23 09:52:17;;;;;;;19.57;11.70;;;11.40;99.90;;;;;;5005298;28;20303;-75
2020/12/23 09:54:43;;;;;;;16.83;11.37;;;11.40;99.90;;;;;;4992728;28;20184;-75
2020/12/23 09:57:08;;;;;;;15.77;11.17;;;11.40;99.90;;;;;;5008754;28;20185;-75
2020/12/23 09:59:34;;;;;;;14.87;10.73;;;11.40;99.90;;;;;;5007531;28;20177;-74
2020/12/23 10:02:00;;;;;;;17.20;10.33;;;11.40;99.90;;;;;;4992379;28;20200;-75
2020/12/23 10:04:25;;;;;;;13.03;9.33;;;11.40;99.90;;;;;;4990002;28;20187;-75
2020/12/23 10:06:51;;;;;;;14.40;10.10;;;11.50;99.90;;;;;;4991928;28;20558;-75
2020/12/23 10:09:16;;;;;;;13.57;9.80;;;11.40;99.90;;;;;;4992576;28;20564;-75
2020/12/23 10:11:42;;;;;;;13.57;9.83;;;11.40;99.90;;;;;;4990000;28;20636;-75
2020/12/23 10:14:07;;;;;;;12.57;9.00;;;11.50;99.90;;;;;;4977063;28;20173;-75
2020/12/23 10:16:33;;;;;;;13.10;9.27;;;11.60;99.90;;;;;;5003083;28;20187;-75
2020/12/23 10:18:59;;;;;;;13.67;8.83;;;11.60;99.90;;;;;;5009019;28;20182;-75
2020/12/23 10:21:25;;;;;;;13.67;8.47;;;11.70;99.90;;;;;;4975690;28;20208;-75
2020/12/23 10:23:51;;;;;;;11.57;8.77;;;11.60;99.90;;;;;;4991578;28;20243;-75
2020/12/23 10:26:16;;;;;;;10.57;7.97;;;11.60;99.90;;;;;;4991246;28;20196;-75
2020/12/23 10:28:42;;;;;;;10.50;7.03;;;11.60;99.90;;;;;;4973718;28;20562;-74
2020/12/23 10:31:08;;;;;;;12.10;7.57;;;11.70;99.90;;;;;;5008372;28;20200;-75
2020/12/23 10:33:34;;;;;;;9.20;7.10;;;11.70;99.90;;;;;;4991927;28;20177;-74
2020/12/23 10:36:01;;;;;;;9.83;6.93;;;11.70;99.90;;;;;;5007822;28;20239;-75
2020/12/23 10:38:28;;;;;;;10.20;6.87;;;11.70;99.90;;;;;;4992439;28;20184;-75
2020/12/23 10:40:57;;;;;;;8.33;6.03;;;11.70;99.90;;;;;;4991466;28;20250;-75
2020/12/23 10:43:23;;;;;;;11.47;6.20;;;11.80;99.90;;;;;;4992581;28;20181;-76
2020/12/23 10:45:49;;;;;;;8.30;5.50;;;11.70;99.90;;;;;;4991566;28;20779;-75
2020/12/23 10:48:14;;;;;;;11.30;5.63;;;11.80;99.90;;;;;;4976317;28;20176;-76
2020/12/23 10:50:40;;;;;;;7.47;4.97;;;11.80;99.90;;;;;;5009247;28;20246;-80
2020/12/23 10:53:05;;;;;;;7.63;5.50;;;11.80;99.90;;;;;;4994044;28;20169;-77
2020/12/23 10:55:31;;;;;;;7.07;5.10;;;11.80;99.90;;;;;;4993891;28;20203;-77
2020/12/23 10:57:56;;;;;;;7.10;4.77;;;11.80;99.90;;;;;;4994377;28;20180;-77
2020/12/23 11:00:22;;;;;;;6.87;4.77;;;11.80;99.90;;;;;;4994201;28;20187;-77
2020/12/23 11:02:48;;;;;;;7.63;4.13;;;11.80;99.90;;;;;;5010559;28;20191;-79
2020/12/23 11:05:14;;;;;;;5.60;4.30;;;11.80;99.90;;;;;;5001434;28;20647;-76
2020/12/23 11:07:39;;;;;;;6.07;4.37;;;11.80;99.90;;;;;;4993637;28;20184;-77
2020/12/23 11:10:05;;;;;;;6.67;4.03;;;11.90;99.90;;;;;;4993500;28;20211;-79
2020/12/23 11:12:30;;;;;;;6.33;4.00;;;11.90;99.90;;;;;;4993121;28;20196;-77
2020/12/23 11:14:56;;;;;;;5.30;4.07;;;12.00;99.90;;;;;;5010074;28;20227;-78
2020/12/23 11:17:22;;;;;;;7.47;3.97;;;11.90;99.90;;;;;;4992375;28;20195;-79
2020/12/23 11:19:48;;;;;;;4.73;4.23;;;12.00;99.90;;;;;;5008640;28;20242;-78
2020/12/23 11:22:13;;;;;;;6.07;4.03;;;12.00;99.90;;;;;;4991414;28;20723;-77
2020/12/23 11:24:39;;;;;;;10.63;4.27;;;12.00;99.90;;;;;;4995453;28;20279;-77
2020/12/23 11:27:04;;;;;;;6.90;4.70;;;12.10;99.90;;;;;;4963732;28;20248;-78
2020/12/23 11:29:30;;;;;;;8.37;4.60;;;12.00;99.90;;;;;;4988735;28;20185;-77
2020/12/23 11:31:55;;;;;;;6.40;4.60;;;12.10;99.90;;;;;;4972667;28;20269;-77
2020/12/23 11:34:21;;;;;;;6.67;4.70;;;12.00;99.90;;;;;;4972434;28;20260;-75
2020/12/23 11:36:46;;;;;;;6.83;4.37;;;12.00;99.90;;;;;;4977071;28;20193;-79
2020/12/23 11:39:12;;;;;;;7.00;4.80;;;12.00;99.90;;;;;;4956453;28;20185;-76
2020/12/23 11:41:38;;;;;;;9.37;4.77;;;12.00;99.90;;;;;;4988920;28;20204;-77
2020/12/23 11:44:03;;;;;;;6.77;4.50;;;12.00;99.90;;;;;;4988673;28;20177;-77
2020/12/23 11:46:31;;;;;;;7.87;4.40;;;12.00;99.90;;;;;;4972179;28;20196;-77
2020/12/23 11:48:57;;;;;;;10.10;5.60;;;12.10;99.90;;;;;;4973991;28;20633;-78
2020/12/23 11:51:23;;;;;;;6.90;5.17;;;12.10;99.90;;;;;;4974598;28;20638;-81
2020/12/23 11:53:49;;;;;;;8.50;5.03;;;12.00;99.90;;;;;;4965812;28;20180;-79
2020/12/23 11:56:14;;;;;;;7.07;4.50;;;12.00;99.90;;;;;;4991966;28;20231;-80
2020/12/23 11:58:40;;;;;;;5.33;4.03;;;12.00;99.90;;;;;;4976197;28;20180;-79
2020/12/23 12:01:05;;;;;;;5.83;4.43;;;12.00;99.90;;;;;;4995363;28;20196;-80
2020/12/23 12:03:31;;;;;;;7.40;4.50;;;12.00;99.90;;;;;;4978655;28;20176;-79
2020/12/23 12:05:56;;;;;;;5.23;4.23;;;12.00;99.90;;;;;;4977858;28;20199;-78
2020/12/23 12:08:22;;;;;;;5.43;4.03;;;12.00;99.90;;;;;;4975784;28;20196;-78
2020/12/23 12:10:48;;;;;;;5.17;4.43;;;12.00;99.90;;;;;;4966529;28;20200;-79
2020/12/23 12:13:13;;;;;;;8.33;4.27;;;12.00;99.90;;;;;;4995539;28;20632;-80
2020/12/23 12:15:39;;;;;;;6.10;4.40;;;12.00;99.90;;;;;;4980849;28;20180;-80
2020/12/23 12:18:04;;;;;;;8.00;4.13;;;12.00;99.90;;;;;;5011656;28;20199;-77
2020/12/23 12:20:30;;;;;;;5.27;4.20;;;11.90;99.90;;;;;;5011246;28;20730;-78
2020/12/23 12:22:55;;;;;;;6.60;4.63;;;12.00;99.90;;;;;;4993730;28;20668;-76
2020/12/23 12:25:21;;;;;;;6.40;4.47;;;12.00;99.90;;;;;;4976609;28;20562;-78
2020/12/23 12:27:46;;;;;;;5.27;4.47;;;11.90;99.90;;;;;;4992312;28;20188;-76
2020/12/23 12:30:12;;;;;;;7.93;4.43;;;11.90;99.90;;;;;;4992987;28;20180;-77
2020/12/23 12:32:37;;;;;;;8.03;4.97;;;12.00;99.90;;;;;;4975414;28;20176;-78
2020/12/23 12:35:03;;;;;;;6.80;4.53;;;12.00;99.90;;;;;;4975691;28;20176;-77